sensor_id;sensor_type;location;lat;lon;timestamp;P1;P2;P0
12542;PMS3003;6337;49.556;25.594;2023-05-10T00:00:17;6.13;4.13;
12542;PMS3003;6337;49.556;25.594;2023-05-10T00:02:47;5.93;3.90;
12542;PMS3003;6337;49.556;25.594;2023-05-10T00:05:14;9.40;4.70;
12542;PMS3003;6337;49.556;25.594;2023-05-10T00:07:42;7.73;3.73;
12542;PMS3003;6337;49.556;25.594;2023-05-10T00:10:10;5.53;3.63;
12542;PMS3003;6337;49.556;25.594;2023-05-10T00:12:37;9.70;4.50;
12542;PMS3003;6337;49.556;25.594;2023-05-10T00:15:05;4.17;3.50;
12542;PMS3003;6337;49.556;25.594;2023-05-10T00:17:34;8.73;5.20;
12542;PMS3003;6337;49.556;25.594;2023-05-10T00:20:03;8.00;3.90;
12542;PMS3003;6337;49.556;25.594;2023-05-10T00:22:32;7.40;4.47;
12542;PMS3003;6337;49.556;25.594;2023-05-10T00:24:59;4.60;3.27;
12542;PMS3003;6337;49.556;25.594;2023-05-10T00:27:27;7.07;3.33;
12542;PMS3003;6337;49.556;25.594;2023-05-10T00:29:54;5.93;4.03;
12542;PMS3003;6337;49.556;25.594;2023-05-10T00:32:23;4.73;4.10;
12542;PMS3003;6337;49.556;25.594;2023-05-10T00:34:51;4.13;3.63;
12542;PMS3003;6337;49.556;25.594;2023-05-10T00:37:20;5.60;4.20;
12542;PMS3003;6337;49.556;25.594;2023-05-10T00:39:47;5.33;3.63;
12542;PMS3003;6337;49.556;25.594;2023-05-10T00:42:15;4.60;3.60;
12542;PMS3003;6337;49.556;25.594;2023-05-10T00:44:42;4.40;3.60;
12542;PMS3003;6337;49.556;25.594;2023-05-10T00:47:11;4.07;3.40;
12542;PMS3003;6337;49.556;25.594;2023-05-10T00:49:39;5.20;3.40;
12542;PMS3003;6337;49.556;25.594;2023-05-10T00:52:07;7.83;4.33;
12542;PMS3003;6337;49.556;25.594;2023-05-10T00:54:37;4.33;3.73;
12542;PMS3003;6337;49.556;25.594;2023-05-10T00:57:04;5.23;4.83;
12542;PMS3003;6337;49.556;25.594;2023-05-10T00:59:31;8.77;4.83;
12542;PMS3003;6337;49.556;25.594;2023-05-10T01:01:59;6.07;4.20;
12542;PMS3003;6337;49.556;25.594;2023-05-10T01:04:26;4.43;3.63;
12542;PMS3003;6337;49.556;25.594;2023-05-10T01:06:53;10.43;7.17;
12542;PMS3003;6337;49.556;25.594;2023-05-10T01:09:24;9.23;6.57;
12542;PMS3003;6337;49.556;25.594;2023-05-10T01:11:53;11.37;7.43;
12542;PMS3003;6337;49.556;25.594;2023-05-10T01:14:23;7.00;6.30;
12542;PMS3003;6337;49.556;25.594;2023-05-10T01:16:53;5.10;4.63;
12542;PMS3003;6337;49.556;25.594;2023-05-10T01:19:21;8.40;5.33;
12542;PMS3003;6337;49.556;25.594;2023-05-10T01:21:53;7.77;5.50;
12542;PMS3003;6337;49.556;25.594;2023-05-10T01:30:35;10.70;6.57;
12542;PMS3003;6337;49.556;25.594;2023-05-10T01:33:38;7.80;6.63;
12542;PMS3003;6337;49.556;25.594;2023-05-10T01:36:09;13.10;6.53;
12542;PMS3003;6337;49.556;25.594;2023-05-10T01:38:41;6.63;5.50;
12542;PMS3003;6337;49.556;25.594;2023-05-10T01:41:13;10.53;6.17;
12542;PMS3003;6337;49.556;25.594;2023-05-10T01:43:46;14.90;7.10;
12542;PMS3003;6337;49.556;25.594;2023-05-10T01:46:20;9.43;5.97;
12542;PMS3003;6337;49.556;25.594;2023-05-10T01:48:55;7.90;5.83;
12542;PMS3003;6337;49.556;25.594;2023-05-10T01:51:25;9.53;5.27;
12542;PMS3003;6337;49.556;25.594;2023-05-10T01:53:58;8.93;5.67;
12542;PMS3003;6337;49.556;25.594;2023-05-10T01:56:29;9.43;6.60;
12542;PMS3003;6337;49.556;25.594;2023-05-10T01:58:57;8.60;6.80;
12542;PMS3003;6337;49.556;25.594;2023-05-10T02:01:26;9.83;6.77;
12542;PMS3003;6337;49.556;25.594;2023-05-10T02:03:56;8.30;7.40;
12542;PMS3003;6337;49.556;25.594;2023-05-10T02:06:24;14.90;7.17;
12542;PMS3003;6337;49.556;25.594;2023-05-10T02:08:52;14.53;6.80;
12542;PMS3003;6337;49.556;25.594;2023-05-10T02:11:20;10.63;6.77;
12542;PMS3003;6337;49.556;25.594;2023-05-10T02:13:49;8.63;6.70;
12542;PMS3003;6337;49.556;25.594;2023-05-10T02:16:17;16.20;7.67;
12542;PMS3003;6337;49.556;25.594;2023-05-10T02:18:45;10.63;8.17;
12542;PMS3003;6337;49.556;25.594;2023-05-10T02:21:15;9.93;7.83;
12542;PMS3003;6337;49.556;25.594;2023-05-10T02:23:44;13.77;8.90;
12542;PMS3003;6337;49.556;25.594;2023-05-10T02:26:17;11.90;7.30;
12542;PMS3003;6337;49.556;25.594;2023-05-10T02:28:45;13.70;8.20;
12542;PMS3003;6337;49.556;25.594;2023-05-10T02:31:13;11.47;9.90;
12542;PMS3003;6337;49.556;25.594;2023-05-10T02:33:41;11.33;8.20;
12542;PMS3003;6337;49.556;25.594;2023-05-10T02:36:09;12.87;8.30;
12542;PMS3003;6337;49.556;25.594;2023-05-10T02:38:40;16.00;7.77;
12542;PMS3003;6337;49.556;25.594;2023-05-10T02:41:08;17.10;8.50;
12542;PMS3003;6337;49.556;25.594;2023-05-10T02:43:36;12.20;7.70;
12542;PMS3003;6337;49.556;25.594;2023-05-10T02:46:05;10.47;7.40;
12542;PMS3003;6337;49.556;25.594;2023-05-10T02:48:32;18.73;7.93;
12542;PMS3003;6337;49.556;25.594;2023-05-10T02:51:00;7.90;7.10;
12542;PMS3003;6337;49.556;25.594;2023-05-10T02:53:33;8.40;6.90;
12542;PMS3003;6337;49.556;25.594;2023-05-10T02:56:08;12.87;8.27;
12542;PMS3003;6337;49.556;25.594;2023-05-10T02:58:44;11.70;7.40;
12542;PMS3003;6337;49.556;25.594;2023-05-10T03:01:12;17.63;7.27;
12542;PMS3003;6337;49.556;25.594;2023-05-10T03:03:40;14.20;6.60;
12542;PMS3003;6337;49.556;25.594;2023-05-10T03:06:08;18.50;7.47;
12542;PMS3003;6337;49.556;25.594;2023-05-10T03:08:35;15.60;7.70;
12542;PMS3003;6337;49.556;25.594;2023-05-10T03:11:14;14.20;6.83;
12542;PMS3003;6337;49.556;25.594;2023-05-10T03:13:53;14.53;7.00;
12542;PMS3003;6337;49.556;25.594;2023-05-10T03:16:27;10.90;6.50;
12542;PMS3003;6337;49.556;25.594;2023-05-10T03:19:05;10.63;6.43;
12542;PMS3003;6337;49.556;25.594;2023-05-10T03:21:40;10.03;6.60;
12542;PMS3003;6337;49.556;25.594;2023-05-10T03:24:09;12.40;6.43;
12542;PMS3003;6337;49.556;25.594;2023-05-10T03:26:42;10.90;5.10;
12542;PMS3003;6337;49.556;25.594;2023-05-10T03:29:11;4.50;4.10;
12542;PMS3003;6337;49.556;25.594;2023-05-10T03:31:40;10.53;7.47;
12542;PMS3003;6337;49.556;25.594;2023-05-10T03:34:07;8.80;6.30;
12542;PMS3003;6337;49.556;25.594;2023-05-10T03:36:35;6.83;6.07;
12542;PMS3003;6337;49.556;25.594;2023-05-10T03:39:03;8.33;6.37;
12542;PMS3003;6337;49.556;25.594;2023-05-10T03:41:30;25.90;9.40;
12542;PMS3003;6337;49.556;25.594;2023-05-10T03:44:02;13.83;9.63;
12542;PMS3003;6337;49.556;25.594;2023-05-10T03:46:30;17.77;7.63;
12542;PMS3003;6337;49.556;25.594;2023-05-10T03:48:58;13.20;7.43;
12542;PMS3003;6337;49.556;25.594;2023-05-10T03:51:25;12.83;7.27;
12542;PMS3003;6337;49.556;25.594;2023-05-10T03:53:53;17.60;7.33;
12542;PMS3003;6337;49.556;25.594;2023-05-10T03:56:20;20.37;8.50;
12542;PMS3003;6337;49.556;25.594;2023-05-10T03:58:48;26.73;9.00;
12542;PMS3003;6337;49.556;25.594;2023-05-10T04:01:17;14.67;8.70;
12542;PMS3003;6337;49.556;25.594;2023-05-10T04:03:45;22.87;8.00;
12542;PMS3003;6337;49.556;25.594;2023-05-10T04:06:12;22.50;8.23;
12542;PMS3003;6337;49.556;25.594;2023-05-10T04:08:41;10.67;7.03;
12542;PMS3003;6337;49.556;25.594;2023-05-10T04:11:09;11.63;5.57;
12542;PMS3003;6337;49.556;25.594;2023-05-10T04:13:38;6.13;5.50;
12542;PMS3003;6337;49.556;25.594;2023-05-10T04:16:06;16.90;4.93;
12542;PMS3003;6337;49.556;25.594;2023-05-10T04:18:35;4.37;3.97;
12542;PMS3003;6337;49.556;25.594;2023-05-10T04:21:02;3.90;3.50;
12542;PMS3003;6337;49.556;25.594;2023-05-10T04:23:29;7.07;4.10;
12542;PMS3003;6337;49.556;25.594;2023-05-10T04:25:59;12.10;3.37;
12542;PMS3003;6337;49.556;25.594;2023-05-10T04:28:27;4.43;3.40;
12542;PMS3003;6337;49.556;25.594;2023-05-10T04:31:00;7.20;4.80;
12542;PMS3003;6337;49.556;25.594;2023-05-10T04:33:29;5.00;4.20;
12542;PMS3003;6337;49.556;25.594;2023-05-10T04:35:59;6.93;4.83;
12542;PMS3003;6337;49.556;25.594;2023-05-10T04:38:26;14.73;5.63;
12542;PMS3003;6337;49.556;25.594;2023-05-10T04:40:54;3.47;3.23;
12542;PMS3003;6337;49.556;25.594;2023-05-10T04:43:22;4.00;3.30;
12542;PMS3003;6337;49.556;25.594;2023-05-10T04:45:50;5.50;4.53;
12542;PMS3003;6337;49.556;25.594;2023-05-10T04:48:17;4.63;3.30;
12542;PMS3003;6337;49.556;25.594;2023-05-10T04:50:46;11.53;3.80;
12542;PMS3003;6337;49.556;25.594;2023-05-10T04:53:15;4.00;3.70;
12542;PMS3003;6337;49.556;25.594;2023-05-10T04:55:43;9.00;4.10;
12542;PMS3003;6337;49.556;25.594;2023-05-10T04:58:11;19.07;4.10;
12542;PMS3003;6337;49.556;25.594;2023-05-10T05:00:40;2.97;2.77;
12542;PMS3003;6337;49.556;25.594;2023-05-10T05:03:07;5.00;4.17;
12542;PMS3003;6337;49.556;25.594;2023-05-10T05:05:35;9.40;4.00;
12542;PMS3003;6337;49.556;25.594;2023-05-10T05:08:03;5.80;4.13;
12542;PMS3003;6337;49.556;25.594;2023-05-10T05:10:32;4.83;4.37;
12542;PMS3003;6337;49.556;25.594;2023-05-10T05:13:02;6.43;3.30;
12542;PMS3003;6337;49.556;25.594;2023-05-10T05:15:30;3.17;2.80;
12542;PMS3003;6337;49.556;25.594;2023-05-10T05:17:58;9.53;3.57;
12542;PMS3003;6337;49.556;25.594;2023-05-10T05:20:25;3.23;3.00;
12542;PMS3003;6337;49.556;25.594;2023-05-10T05:22:54;8.43;3.80;
12542;PMS3003;6337;49.556;25.594;2023-05-10T05:25:21;11.67;4.47;
12542;PMS3003;6337;49.556;25.594;2023-05-10T05:27:51;12.23;3.40;
12542;PMS3003;6337;49.556;25.594;2023-05-10T05:30:19;5.43;3.50;
12542;PMS3003;6337;49.556;25.594;2023-05-10T05:32:46;11.37;3.93;
12542;PMS3003;6337;49.556;25.594;2023-05-10T05:35:13;5.67;3.23;
12542;PMS3003;6337;49.556;25.594;2023-05-10T05:37:41;7.80;4.00;
12542;PMS3003;6337;49.556;25.594;2023-05-10T05:40:11;4.27;3.33;
12542;PMS3003;6337;49.556;25.594;2023-05-10T05:42:43;10.97;3.60;
12542;PMS3003;6337;49.556;25.594;2023-05-10T05:45:12;5.70;4.30;
12542;PMS3003;6337;49.556;25.594;2023-05-10T05:47:40;4.53;3.47;
12542;PMS3003;6337;49.556;25.594;2023-05-10T05:50:08;5.97;3.40;
12542;PMS3003;6337;49.556;25.594;2023-05-10T05:52:37;8.60;4.20;
12542;PMS3003;6337;49.556;25.594;2023-05-10T05:55:05;4.30;3.10;
12542;PMS3003;6337;49.556;25.594;2023-05-10T05:57:33;8.40;3.70;
12542;PMS3003;6337;49.556;25.594;2023-05-10T06:00:02;7.40;3.40;
12542;PMS3003;6337;49.556;25.594;2023-05-10T06:02:32;5.60;4.30;
12542;PMS3003;6337;49.556;25.594;2023-05-10T06:05:00;5.20;3.90;
12542;PMS3003;6337;49.556;25.594;2023-05-10T06:07:28;7.63;3.40;
12542;PMS3003;6337;49.556;25.594;2023-05-10T06:09:55;6.03;3.93;
12542;PMS3003;6337;49.556;25.594;2023-05-10T06:12:24;13.10;2.90;
12542;PMS3003;6337;49.556;25.594;2023-05-10T06:14:53;10.90;2.70;
12542;PMS3003;6337;49.556;25.594;2023-05-10T06:17:21;5.10;3.10;
12542;PMS3003;6337;49.556;25.594;2023-05-10T06:19:51;4.13;2.90;
12542;PMS3003;6337;49.556;25.594;2023-05-10T06:22:19;2.53;2.33;
12542;PMS3003;6337;49.556;25.594;2023-05-10T06:24:49;2.63;2.03;
12542;PMS3003;6337;49.556;25.594;2023-05-10T06:27:17;2.30;2.10;
12542;PMS3003;6337;49.556;25.594;2023-05-10T06:29:48;2.07;1.70;
12542;PMS3003;6337;49.556;25.594;2023-05-10T06:32:17;3.80;2.60;
12542;PMS3003;6337;49.556;25.594;2023-05-10T06:34:44;5.23;2.73;
12542;PMS3003;6337;49.556;25.594;2023-05-10T06:37:14;3.37;1.93;
12542;PMS3003;6337;49.556;25.594;2023-05-10T06:39:41;4.90;2.20;
12542;PMS3003;6337;49.556;25.594;2023-05-10T06:42:09;7.07;2.80;
12542;PMS3003;6337;49.556;25.594;2023-05-10T06:44:42;3.80;1.93;
12542;PMS3003;6337;49.556;25.594;2023-05-10T06:47:12;6.63;2.40;
12542;PMS3003;6337;49.556;25.594;2023-05-10T06:49:40;6.00;3.10;
12542;PMS3003;6337;49.556;25.594;2023-05-10T06:52:09;4.93;2.10;
12542;PMS3003;6337;49.556;25.594;2023-05-10T06:54:42;2.37;2.17;
12542;PMS3003;6337;49.556;25.594;2023-05-10T06:57:10;3.13;2.53;
12542;PMS3003;6337;49.556;25.594;2023-05-10T06:59:38;10.47;3.00;
12542;PMS3003;6337;49.556;25.594;2023-05-10T07:02:06;2.60;2.50;
12542;PMS3003;6337;49.556;25.594;2023-05-10T07:04:36;8.77;4.10;
12542;PMS3003;6337;49.556;25.594;2023-05-10T07:07:04;4.73;2.73;
12542;PMS3003;6337;49.556;25.594;2023-05-10T07:09:37;3.90;2.63;
12542;PMS3003;6337;49.556;25.594;2023-05-10T07:12:07;1.50;1.40;
12542;PMS3003;6337;49.556;25.594;2023-05-10T07:14:36;5.70;3.93;
12542;PMS3003;6337;49.556;25.594;2023-05-10T07:17:04;7.97;2.43;
12542;PMS3003;6337;49.556;25.594;2023-05-10T07:19:31;3.77;1.63;
12542;PMS3003;6337;49.556;25.594;2023-05-10T07:21:59;7.33;2.03;
12542;PMS3003;6337;49.556;25.594;2023-05-10T07:24:27;1.77;1.67;
12542;PMS3003;6337;49.556;25.594;2023-05-10T07:26:54;10.33;2.40;
12542;PMS3003;6337;49.556;25.594;2023-05-10T07:29:25;6.63;2.20;
12542;PMS3003;6337;49.556;25.594;2023-05-10T07:31:53;1.97;1.73;
12542;PMS3003;6337;49.556;25.594;2023-05-10T07:34:20;3.20;2.20;
12542;PMS3003;6337;49.556;25.594;2023-05-10T07:36:49;2.73;2.50;
12542;PMS3003;6337;49.556;25.594;2023-05-10T07:39:17;2.93;2.63;
12542;PMS3003;6337;49.556;25.594;2023-05-10T07:41:46;7.43;2.80;
12542;PMS3003;6337;49.556;25.594;2023-05-10T07:44:14;2.20;2.10;
12542;PMS3003;6337;49.556;25.594;2023-05-10T07:46:48;2.77;2.53;
12542;PMS3003;6337;49.556;25.594;2023-05-10T07:49:17;14.40;1.97;
12542;PMS3003;6337;49.556;25.594;2023-05-10T07:51:45;2.87;2.50;
12542;PMS3003;6337;49.556;25.594;2023-05-10T07:54:15;2.20;2.00;
12542;PMS3003;6337;49.556;25.594;2023-05-10T07:56:43;11.70;2.17;
12542;PMS3003;6337;49.556;25.594;2023-05-10T07:59:14;3.93;1.70;
12542;PMS3003;6337;49.556;25.594;2023-05-10T08:01:42;2.50;1.93;
12542;PMS3003;6337;49.556;25.594;2023-05-10T08:04:12;8.93;2.73;
12542;PMS3003;6337;49.556;25.594;2023-05-10T08:06:41;3.23;3.00;
12542;PMS3003;6337;49.556;25.594;2023-05-10T08:09:08;2.77;2.57;
12542;PMS3003;6337;49.556;25.594;2023-05-10T08:11:37;3.63;1.57;
12542;PMS3003;6337;49.556;25.594;2023-05-10T08:14:04;2.00;1.73;
12542;PMS3003;6337;49.556;25.594;2023-05-10T08:16:32;2.80;1.60;
12542;PMS3003;6337;49.556;25.594;2023-05-10T08:19:00;6.10;2.50;
12542;PMS3003;6337;49.556;25.594;2023-05-10T08:21:29;4.03;2.23;
12542;PMS3003;6337;49.556;25.594;2023-05-10T08:23:57;6.50;2.07;
12542;PMS3003;6337;49.556;25.594;2023-05-10T08:26:24;2.97;2.77;
12542;PMS3003;6337;49.556;25.594;2023-05-10T08:28:52;2.10;1.83;
12542;PMS3003;6337;49.556;25.594;2023-05-10T08:31:19;9.80;2.10;
12542;PMS3003;6337;49.556;25.594;2023-05-10T08:33:47;4.57;2.40;
12542;PMS3003;6337;49.556;25.594;2023-05-10T08:36:16;5.97;3.50;
12542;PMS3003;6337;49.556;25.594;2023-05-10T08:38:49;3.70;3.07;
12542;PMS3003;6337;49.556;25.594;2023-05-10T08:41:19;5.00;2.47;
12542;PMS3003;6337;49.556;25.594;2023-05-10T08:43:48;3.33;2.03;
12542;PMS3003;6337;49.556;25.594;2023-05-10T08:46:17;5.03;1.63;
12542;PMS3003;6337;49.556;25.594;2023-05-10T08:48:45;1.63;1.53;
12542;PMS3003;6337;49.556;25.594;2023-05-10T08:51:14;1.50;1.40;
12542;PMS3003;6337;49.556;25.594;2023-05-10T08:53:56;5.00;1.70;
12542;PMS3003;6337;49.556;25.594;2023-05-10T08:56:23;3.20;1.87;
12542;PMS3003;6337;49.556;25.594;2023-05-10T08:58:51;5.63;2.07;
12542;PMS3003;6337;49.556;25.594;2023-05-10T09:01:18;3.87;1.27;
12542;PMS3003;6337;49.556;25.594;2023-05-10T09:03:48;2.37;1.80;
12542;PMS3003;6337;49.556;25.594;2023-05-10T09:06:16;4.20;1.57;
12542;PMS3003;6337;49.556;25.594;2023-05-10T09:08:44;1.93;1.83;
12542;PMS3003;6337;49.556;25.594;2023-05-10T09:11:13;1.60;1.50;
12542;PMS3003;6337;49.556;25.594;2023-05-10T09:13:43;3.73;2.10;
12542;PMS3003;6337;49.556;25.594;2023-05-10T09:16:11;1.20;1.20;
12542;PMS3003;6337;49.556;25.594;2023-05-10T09:18:39;2.20;1.90;
12542;PMS3003;6337;49.556;25.594;2023-05-10T09:21:08;1.73;1.40;
12542;PMS3003;6337;49.556;25.594;2023-05-10T09:23:38;1.50;1.40;
12542;PMS3003;6337;49.556;25.594;2023-05-10T09:26:07;4.13;2.10;
12542;PMS3003;6337;49.556;25.594;2023-05-10T09:28:49;3.63;1.30;
12542;PMS3003;6337;49.556;25.594;2023-05-10T09:31:18;2.30;1.20;
12542;PMS3003;6337;49.556;25.594;2023-05-10T09:33:47;4.10;2.33;
12542;PMS3003;6337;49.556;25.594;2023-05-10T09:36:16;5.50;1.40;
12542;PMS3003;6337;49.556;25.594;2023-05-10T09:38:47;6.73;1.57;
12542;PMS3003;6337;49.556;25.594;2023-05-10T09:41:17;5.53;1.57;
12542;PMS3003;6337;49.556;25.594;2023-05-10T09:43:49;4.20;1.73;
12542;PMS3003;6337;49.556;25.594;2023-05-10T09:46:17;4.50;1.50;
12542;PMS3003;6337;49.556;25.594;2023-05-10T09:48:46;8.70;3.30;
12542;PMS3003;6337;49.556;25.594;2023-05-10T09:51:20;2.47;2.27;
12542;PMS3003;6337;49.556;25.594;2023-05-10T09:53:47;2.83;1.70;
12542;PMS3003;6337;49.556;25.594;2023-05-10T09:59:07;2.40;1.80;
12542;PMS3003;6337;49.556;25.594;2023-05-10T10:01:36;3.87;2.37;
12542;PMS3003;6337;49.556;25.594;2023-05-10T10:04:06;4.77;1.53;
12542;PMS3003;6337;49.556;25.594;2023-05-10T10:06:36;7.23;1.60;
12542;PMS3003;6337;49.556;25.594;2023-05-10T10:09:04;2.13;1.90;
12542;PMS3003;6337;49.556;25.594;2023-05-10T10:11:33;10.00;1.87;
12542;PMS3003;6337;49.556;25.594;2023-05-10T10:14:02;4.73;1.23;
12542;PMS3003;6337;49.556;25.594;2023-05-10T10:16:32;5.27;1.87;
12542;PMS3003;6337;49.556;25.594;2023-05-10T10:18:59;6.50;1.60;
12542;PMS3003;6337;49.556;25.594;2023-05-10T10:21:27;3.83;1.40;
12542;PMS3003;6337;49.556;25.594;2023-05-10T10:23:56;2.10;1.20;
12542;PMS3003;6337;49.556;25.594;2023-05-10T10:26:24;2.07;1.87;
12542;PMS3003;6337;49.556;25.594;2023-05-10T10:28:56;1.73;1.63;
12542;PMS3003;6337;49.556;25.594;2023-05-10T10:31:40;3.30;2.30;
12542;PMS3003;6337;49.556;25.594;2023-05-10T10:34:21;2.93;2.03;
12542;PMS3003;6337;49.556;25.594;2023-05-10T10:36:55;1.50;1.40;
12542;PMS3003;6337;49.556;25.594;2023-05-10T10:39:24;3.77;2.10;
12542;PMS3003;6337;49.556;25.594;2023-05-10T10:41:52;2.00;1.90;
12542;PMS3003;6337;49.556;25.594;2023-05-10T10:44:23;3.30;1.43;
12542;PMS3003;6337;49.556;25.594;2023-05-10T10:47:31;2.43;1.90;
12542;PMS3003;6337;49.556;25.594;2023-05-10T10:50:05;1.47;1.37;
12542;PMS3003;6337;49.556;25.594;2023-05-10T10:52:34;2.00;1.40;
12542;PMS3003;6337;49.556;25.594;2023-05-10T10:55:05;4.73;1.30;
12542;PMS3003;6337;49.556;25.594;2023-05-10T10:57:48;1.63;1.30;
12542;PMS3003;6337;49.556;25.594;2023-05-10T11:00:23;8.43;1.80;
12542;PMS3003;6337;49.556;25.594;2023-05-10T11:02:55;14.33;1.77;
12542;PMS3003;6337;49.556;25.594;2023-05-10T11:05:25;2.93;1.70;
12542;PMS3003;6337;49.556;25.594;2023-05-10T11:08:06;5.00;1.30;
12542;PMS3003;6337;49.556;25.594;2023-05-10T11:11:06;1.63;1.53;
12542;PMS3003;6337;49.556;25.594;2023-05-10T11:13:39;2.40;1.57;
12542;PMS3003;6337;49.556;25.594;2023-05-10T11:16:10;1.67;1.57;
12542;PMS3003;6337;49.556;25.594;2023-05-10T11:18:44;1.53;1.43;
12542;PMS3003;6337;49.556;25.594;2023-05-10T11:21:20;4.70;2.03;
12542;PMS3003;6337;49.556;25.594;2023-05-10T11:23:49;1.40;1.30;
12542;PMS3003;6337;49.556;25.594;2023-05-10T11:26:22;3.77;1.80;
12542;PMS3003;6337;49.556;25.594;2023-05-10T11:28:53;2.40;1.43;
12542;PMS3003;6337;49.556;25.594;2023-05-10T11:31:26;1.20;1.20;
12542;PMS3003;6337;49.556;25.594;2023-05-10T11:33:56;5.03;2.03;
12542;PMS3003;6337;49.556;25.594;2023-05-10T11:36:27;1.43;1.33;
12542;PMS3003;6337;49.556;25.594;2023-05-10T11:38:56;2.60;2.07;
12542;PMS3003;6337;49.556;25.594;2023-05-10T11:41:23;6.10;1.70;
12542;PMS3003;6337;49.556;25.594;2023-05-10T11:43:54;2.23;2.13;
12542;PMS3003;6337;49.556;25.594;2023-05-10T11:46:23;1.63;1.33;
12542;PMS3003;6337;49.556;25.594;2023-05-10T11:48:52;3.67;1.93;
12542;PMS3003;6337;49.556;25.594;2023-05-10T11:51:24;4.10;1.30;
12542;PMS3003;6337;49.556;25.594;2023-05-10T11:53:52;3.70;1.80;
12542;PMS3003;6337;49.556;25.594;2023-05-10T11:56:20;1.63;1.53;
12542;PMS3003;6337;49.556;25.594;2023-05-10T11:58:52;1.60;1.50;
12542;PMS3003;6337;49.556;25.594;2023-05-10T12:01:21;5.53;2.00;
12542;PMS3003;6337;49.556;25.594;2023-05-10T12:03:48;2.07;1.30;
12542;PMS3003;6337;49.556;25.594;2023-05-10T12:06:16;7.90;1.60;
12542;PMS3003;6337;49.556;25.594;2023-05-10T12:08:46;1.93;1.23;
12542;PMS3003;6337;49.556;25.594;2023-05-10T12:11:17;1.97;1.87;
12542;PMS3003;6337;49.556;25.594;2023-05-10T12:13:46;1.83;1.73;
12542;PMS3003;6337;49.556;25.594;2023-05-10T12:18:59;1.93;1.80;
12542;PMS3003;6337;49.556;25.594;2023-05-10T12:21:27;4.67;1.90;
12542;PMS3003;6337;49.556;25.594;2023-05-10T12:23:58;2.03;1.40;
12542;PMS3003;6337;49.556;25.594;2023-05-10T12:26:27;9.07;2.30;
12542;PMS3003;6337;49.556;25.594;2023-05-10T12:28:55;1.80;1.50;
12542;PMS3003;6337;49.556;25.594;2023-05-10T12:31:28;2.10;1.57;
12542;PMS3003;6337;49.556;25.594;2023-05-10T12:33:56;1.80;1.70;
12542;PMS3003;6337;49.556;25.594;2023-05-10T12:36:24;4.20;3.43;
12542;PMS3003;6337;49.556;25.594;2023-05-10T12:38:59;6.63;2.03;
12542;PMS3003;6337;49.556;25.594;2023-05-10T12:41:31;47.67;18.57;
12542;PMS3003;6337;49.556;25.594;2023-05-10T12:44:00;12.97;6.83;
12542;PMS3003;6337;49.556;25.594;2023-05-10T12:46:33;3.13;1.50;
12542;PMS3003;6337;49.556;25.594;2023-05-10T12:49:01;3.33;2.20;
12542;PMS3003;6337;49.556;25.594;2023-05-10T12:51:29;3.67;2.07;
12542;PMS3003;6337;49.556;25.594;2023-05-10T12:53:56;1.97;1.77;
12542;PMS3003;6337;49.556;25.594;2023-05-10T12:56:26;3.37;1.50;
12542;PMS3003;6337;49.556;25.594;2023-05-10T12:58:54;1.67;1.50;
12542;PMS3003;6337;49.556;25.594;2023-05-10T13:01:22;1.53;1.10;
12542;PMS3003;6337;49.556;25.594;2023-05-10T13:03:51;6.13;1.83;
12542;PMS3003;6337;49.556;25.594;2023-05-10T13:06:19;12.37;2.53;
12542;PMS3003;6337;49.556;25.594;2023-05-10T13:08:47;1.77;1.50;
12542;PMS3003;6337;49.556;25.594;2023-05-10T13:11:15;1.83;1.70;
12542;PMS3003;6337;49.556;25.594;2023-05-10T13:13:48;2.60;1.60;
12542;PMS3003;6337;49.556;25.594;2023-05-10T13:16:15;4.60;2.93;
12542;PMS3003;6337;49.556;25.594;2023-05-10T13:18:44;5.40;2.20;
12542;PMS3003;6337;49.556;25.594;2023-05-10T13:21:12;2.33;1.60;
12542;PMS3003;6337;49.556;25.594;2023-05-10T13:23:42;3.67;2.10;
12542;PMS3003;6337;49.556;25.594;2023-05-10T13:26:11;13.00;7.60;
12542;PMS3003;6337;49.556;25.594;2023-05-10T13:28:46;5.40;3.77;
12542;PMS3003;6337;49.556;25.594;2023-05-10T13:31:13;6.53;4.47;
12542;PMS3003;6337;49.556;25.594;2023-05-10T13:33:42;21.93;12.53;
12542;PMS3003;6337;49.556;25.594;2023-05-10T13:36:09;3.03;2.10;
12542;PMS3003;6337;49.556;25.594;2023-05-10T13:38:37;8.87;5.20;
12542;PMS3003;6337;49.556;25.594;2023-05-10T13:41:06;6.80;5.10;
12542;PMS3003;6337;49.556;25.594;2023-05-10T13:43:33;5.93;4.23;
12542;PMS3003;6337;49.556;25.594;2023-05-10T13:46:03;3.73;2.50;
12542;PMS3003;6337;49.556;25.594;2023-05-10T13:48:31;4.97;4.07;
12542;PMS3003;6337;49.556;25.594;2023-05-10T13:50:58;12.20;7.20;
12542;PMS3003;6337;49.556;25.594;2023-05-10T13:53:26;7.70;4.73;
12542;PMS3003;6337;49.556;25.594;2023-05-10T13:55:54;19.07;9.80;
12542;PMS3003;6337;49.556;25.594;2023-05-10T13:58:22;8.53;3.80;
12542;PMS3003;6337;49.556;25.594;2023-05-10T14:00:49;3.07;2.03;
12542;PMS3003;6337;49.556;25.594;2023-05-10T14:03:19;4.60;2.73;
12542;PMS3003;6337;49.556;25.594;2023-05-10T14:05:46;1.97;1.77;
12542;PMS3003;6337;49.556;25.594;2023-05-10T14:08:14;1.50;1.40;
12542;PMS3003;6337;49.556;25.594;2023-05-10T14:10:43;2.50;1.80;
12542;PMS3003;6337;49.556;25.594;2023-05-10T14:13:12;5.93;1.77;
12542;PMS3003;6337;49.556;25.594;2023-05-10T14:15:40;1.73;1.63;
12542;PMS3003;6337;49.556;25.594;2023-05-10T14:18:08;2.50;2.30;
12542;PMS3003;6337;49.556;25.594;2023-05-10T14:20:38;2.70;1.13;
12542;PMS3003;6337;49.556;25.594;2023-05-10T14:23:05;1.53;1.43;
12542;PMS3003;6337;49.556;25.594;2023-05-10T14:25:33;10.00;2.00;
12542;PMS3003;6337;49.556;25.594;2023-05-10T14:28:01;4.03;1.80;
12542;PMS3003;6337;49.556;25.594;2023-05-10T14:30:32;3.13;1.80;
12542;PMS3003;6337;49.556;25.594;2023-05-10T14:32:59;2.93;2.53;
12542;PMS3003;6337;49.556;25.594;2023-05-10T14:35:27;2.00;1.90;
12542;PMS3003;6337;49.556;25.594;2023-05-10T14:37:57;2.73;1.97;
12542;PMS3003;6337;49.556;25.594;2023-05-10T14:40:26;1.97;1.63;
12542;PMS3003;6337;49.556;25.594;2023-05-10T14:42:54;1.90;1.73;
12542;PMS3003;6337;49.556;25.594;2023-05-10T14:45:21;1.80;1.47;
12542;PMS3003;6337;49.556;25.594;2023-05-10T14:47:51;4.00;1.43;
12542;PMS3003;6337;49.556;25.594;2023-05-10T14:50:21;1.53;1.50;
12542;PMS3003;6337;49.556;25.594;2023-05-10T14:52:48;1.30;1.20;
12542;PMS3003;6337;49.556;25.594;2023-05-10T14:55:18;14.57;7.90;
12542;PMS3003;6337;49.556;25.594;2023-05-10T14:57:48;9.00;5.30;
12542;PMS3003;6337;49.556;25.594;2023-05-10T15:00:16;4.60;3.23;
12542;PMS3003;6337;49.556;25.594;2023-05-10T15:02:47;2.80;2.60;
12542;PMS3003;6337;49.556;25.594;2023-05-10T15:05:14;3.83;1.80;
12542;PMS3003;6337;49.556;25.594;2023-05-10T15:07:42;10.27;7.10;
12542;PMS3003;6337;49.556;25.594;2023-05-10T15:10:11;1.90;1.80;
12542;PMS3003;6337;49.556;25.594;2023-05-10T15:12:40;1.20;1.10;
12542;PMS3003;6337;49.556;25.594;2023-05-10T15:15:09;1.80;1.37;
12542;PMS3003;6337;49.556;25.594;2023-05-10T15:17:37;2.77;1.90;
12542;PMS3003;6337;49.556;25.594;2023-05-10T15:20:05;2.43;2.27;
12542;PMS3003;6337;49.556;25.594;2023-05-10T15:22:35;5.77;2.50;
12542;PMS3003;6337;49.556;25.594;2023-05-10T15:25:03;41.07;19.57;
12542;PMS3003;6337;49.556;25.594;2023-05-10T15:27:31;20.77;11.00;
12542;PMS3003;6337;49.556;25.594;2023-05-10T15:30:01;5.07;3.30;
12542;PMS3003;6337;49.556;25.594;2023-05-10T15:32:29;6.30;2.60;
12542;PMS3003;6337;49.556;25.594;2023-05-10T15:34:57;1.87;1.73;
12542;PMS3003;6337;49.556;25.594;2023-05-10T15:37:26;2.27;1.20;